Time;durP1;ratioP1;P1;durP2;ratioP2;P2;SDS_P1;SDS_P2;PMS_P1;PMS_P2;Temp;Humidity;BMP_temperature;BMP_pressure;BME280_temperature;BME280_humidity;BME280_pressure;Samples;Min_cycle;Max_cycle;Signal;HPM_P1;HPM_P2
2022/11/27 00:00:39;;;;;;;8.20;4.30;;;;;;;19.01;56.80;101540.63;5073400;28;20406;-62
2022/11/27 00:03:04;;;;;;;11.10;4.30;;;;;;;19.06;56.75;101537.53;5073092;28;20196;-62
2022/11/27 00:05:29;;;;;;;7.87;3.50;;;;;;;19.02;56.71;101525.13;5073146;28;20195;-62
2022/11/27 00:07:55;;;;;;;8.40;3.83;;;;;;;19.05;56.96;101517.84;5055441;28;20171;-62
2022/11/27 00:10:20;;;;;;;10.97;4.47;;;;;;;19.07;56.74;101501.16;5073548;28;20265;-62
2022/11/27 00:12:46;;;;;;;8.97;4.50;;;;;;;19.03;56.64;101503.91;5074758;28;20500;-62
2022/11/27 00:15:11;;;;;;;7.80;4.13;;;;;;;19.00;56.61;101498.88;5074506;28;20183;-62
2022/11/27 00:17:37;;;;;;;6.83;3.97;;;;;;;19.00;56.82;101498.88;5078098;28;20166;-62
2022/11/27 00:20:03;;;;;;;6.30;4.10;;;;;;;18.97;57.07;101499.59;5078260;28;20167;-62
2022/11/27 00:22:28;;;;;;;8.97;4.70;;;;;;;18.98;56.89;101494.72;5078161;28;20272;-62
2022/11/27 00:24:54;;;;;;;8.03;4.30;;;;;;;19.00;57.02;101500.91;5077690;28;20406;-62
2022/11/27 00:27:19;;;;;;;6.83;3.97;;;;;;;19.00;56.96;101496.03;5077986;28;20160;-62
2022/11/27 00:29:44;;;;;;;10.20;3.77;;;;;;;19.00;56.92;101498.88;5077427;28;20179;-62
2022/11/27 00:32:10;;;;;;;7.33;4.23;;;;;;;19.04;56.79;101485.53;5078166;28;20187;-62
2022/11/27 00:34:36;;;;;;;12.90;4.67;;;;;;;19.00;56.88;101487.44;5077062;28;20183;-62
2022/11/27 00:37:01;;;;;;;6.27;3.83;;;;;;;19.01;56.88;101486.25;5077089;28;20167;-62
2022/11/27 00:39:27;;;;;;;7.30;4.17;;;;;;;18.98;57.02;101478.38;5076978;28;20162;-62
2022/11/27 00:41:53;;;;;;;7.67;3.60;;;;;;;19.03;56.96;101478.16;5068947;28;20178;-62
2022/11/27 00:44:18;;;;;;;6.53;3.97;;;;;;;19.00;57.34;101478.84;5076909;28;20658;-63
2022/11/27 00:46:43;;;;;;;11.53;4.60;;;;;;;19.03;56.82;101477.31;5076206;28;20420;-62
2022/11/27 00:49:10;;;;;;;8.77;3.93;;;;;;;19.03;56.98;101480.16;5076247;28;20183;-62
2022/11/27 00:51:35;;;;;;;6.00;3.50;;;;;;;19.02;56.92;101476.47;5058996;28;20191;-62
2022/11/27 00:54:01;;;;;;;7.63;3.87;;;;;;;18.98;57.13;101469.81;5076230;28;20834;-62
2022/11/27 00:56:31;;;;;;;8.17;4.07;;;;;;;18.99;57.18;101471.47;5076291;28;20270;-62
2022/11/27 00:58:57;;;;;;;7.50;4.33;;;;;;;19.02;56.90;101473.59;5075788;28;20198;-62
2022/11/27 01:01:24;;;;;;;5.17;3.40;;;;;;;19.00;57.16;101470.25;5075994;28;20429;-62
2022/11/27 01:03:50;;;;;;;5.60;3.40;;;;;;;19.05;57.17;101469.19;5074947;28;20167;-62
2022/11/27 01:06:16;;;;;;;7.50;3.63;;;;;;;19.00;57.09;101475.16;5075398;28;20402;-62
2022/11/27 01:08:42;;;;;;;6.67;4.20;;;;;;;19.01;57.50;101463.34;5075226;28;20171;-62
2022/11/27 01:11:15;;;;;;;9.53;4.80;;;;;;;19.01;57.34;101465.38;5075486;28;20523;-62
2022/11/27 01:13:41;;;;;;;6.43;3.60;;;;;;;19.00;57.18;101455.09;5057114;28;20740;-62
2022/11/27 01:16:08;;;;;;;6.63;3.73;;;;;;;18.99;57.27;101462.88;5075854;28;20448;-62
2022/11/27 01:18:34;;;;;;;7.43;3.60;;;;;;;19.00;57.23;101458.81;5075466;28;20163;-62
2022/11/27 01:20:59;;;;;;;6.53;3.37;;;;;;;19.00;57.12;101460.84;5057972;28;20730;-63
2022/11/27 01:23:25;;;;;;;6.03;3.70;;;;;;;18.99;57.20;101454.28;5076066;28;20445;-62
2022/11/27 01:25:52;;;;;;;5.80;3.30;;;;;;;19.00;57.21;101452.25;5075567;28;20635;-62
2022/11/27 01:28:18;;;;;;;6.37;3.40;;;;;;;19.01;57.10;101457.63;5075286;28;20155;-62
2022/11/27 01:30:43;;;;;;;5.40;3.47;;;;;;;18.99;57.11;101453.44;5075267;28;20402;-62
2022/11/27 01:33:09;;;;;;;7.53;3.80;;;;;;;18.98;57.42;101448.91;5075048;28;20228;-62
2022/11/27 01:35:34;;;;;;;10.50;3.30;;;;;;;18.98;57.24;101444.03;5075273;28;20297;-62
2022/11/27 01:38:00;;;;;;;4.47;3.30;;;;;;;19.00;57.28;101450.22;5075558;28;20175;-62
2022/11/27 01:40:25;;;;;;;6.43;3.90;;;;;;;18.95;57.39;101455.34;5075308;28;20155;-62
2022/11/27 01:42:50;;;;;;;6.87;3.23;;;;;;;18.98;57.40;101449.78;5075293;28;20174;-62
2022/11/27 01:45:18;;;;;;;6.40;3.23;;;;;;;18.95;57.47;101439.03;5075060;28;20221;-62
2022/11/27 01:47:51;;;;;;;5.30;3.40;;;;;;;18.97;57.28;101442.34;5074976;28;20243;-62
2022/11/27 01:50:37;;;;;;;10.57;3.50;;;;;;;18.96;57.56;101443.53;5075114;28;20542;-62
2022/11/27 01:53:13;;;;;;;6.23;3.47;;;;;;;18.98;57.42;101443.19;5056041;28;20548;-62
2022/11/27 01:55:53;;;;;;;6.57;3.70;;;;;;;18.95;57.58;101444.75;5056524;28;20899;-62
2022/11/27 01:58:23;;;;;;;8.30;3.57;;;;;;;18.92;57.42;101445.44;5074520;28;20417;-62
2022/11/27 02:00:48;;;;;;;6.03;3.80;;;;;;;18.97;57.43;101453.78;5074405;28;20398;-62
2022/11/27 02:03:14;;;;;;;5.03;3.23;;;;;;;18.95;57.48;101443.91;5060760;28;20512;-62
2022/11/27 02:05:40;;;;;;;8.10;3.73;;;;;;;18.99;57.41;101448.56;5074876;28;20195;-62
2022/11/27 02:08:07;;;;;;;6.10;2.80;;;;;;;18.94;57.57;101457.38;5074922;28;20416;-62
2022/11/27 02:10:43;;;;;;;7.53;3.57;;;;;;;18.94;57.54;101457.38;5075588;28;20178;-62
2022/11/27 02:13:13;;;;;;;6.10;3.50;;;;;;;18.97;57.52;101462.38;5076297;28;20452;-62
2022/11/27 02:16:03;;;;;;;8.00;3.57;;;;;;;18.94;57.69;101454.53;5075573;28;20925;-62
2022/11/27 02:19:07;;;;;;;7.60;3.47;;;;;;;18.97;57.54;101456.66;5074421;28;20506;-62
2022/11/27 02:21:41;;;;;;;4.60;3.07;;;;;;;18.94;57.45;101451.66;5049123;28;20815;-62
2022/11/27 02:24:24;;;;;;;5.40;3.00;;;;;;;18.97;57.45;101453.78;5057004;28;20917;-62
2022/11/27 02:27:04;;;;;;;7.00;3.50;;;;;;;18.94;57.78;101457.38;5057085;28;20904;-62
2022/11/27 02:29:31;;;;;;;5.83;2.93;;;;;;;18.93;57.39;101452.88;5074753;28;20390;-62
2022/11/27 02:32:01;;;;;;;7.00;3.27;;;;;;;18.96;57.51;101439.88;5056958;28;20467;-62
2022/11/27 02:34:46;;;;;;;6.77;3.33;;;;;;;18.97;57.42;101441.53;5056941;28;20409;-62
2022/11/27 02:37:20;;;;;;;6.20;3.33;;;;;;;18.91;57.62;101426.59;5073971;28;20492;-62
2022/11/27 02:40:02;;;;;;;5.57;3.23;;;;;;;18.92;57.59;101430.31;5055602;28;20505;-62
2022/11/27 02:42:32;;;;;;;5.13;3.30;;;;;;;18.88;57.82;101435.94;5057132;28;20437;-62
2022/11/27 02:45:04;;;;;;;6.73;3.20;;;;;;;18.91;57.58;101432.34;5074334;28;20409;-62
2022/11/27 02:47:29;;;;;;;6.83;3.50;;;;;;;18.92;57.78;101427.47;5056822;28;20464;-62
2022/11/27 02:49:55;;;;;;;3.97;2.90;;;;;;;18.93;57.71;101429.97;5036203;28;20426;-62
2022/11/27 02:52:22;;;;;;;5.10;3.23;;;;;;;18.86;57.97;101423.97;5053987;28;20714;-62
2022/11/27 02:54:47;;;;;;;5.77;2.80;;;;;;;18.87;58.01;101411.34;5024709;28;20579;-62
2022/11/27 02:57:13;;;;;;;7.03;3.50;;;;;;;18.87;57.72;101411.34;5056106;28;20405;-63
2022/11/27 02:59:38;;;;;;;4.50;2.73;;;;;;;18.87;57.78;101417.06;5071609;28;20163;-62
2022/11/27 03:02:07;;;;;;;5.90;3.23;;;;;;;18.87;57.70;101410.53;5055238;28;20220;-62
2022/11/27 03:04:36;;;;;;;6.50;2.60;;;;;;;18.88;57.97;101410.16;5037211;28;20202;-63
2022/11/27 03:07:05;;;;;;;7.13;3.07;;;;;;;18.86;57.77;101406.81;5055874;28;20514;-62
2022/11/27 03:09:35;;;;;;;3.90;2.60;;;;;;;18.89;57.64;101399.53;5055401;28;20417;-62
2022/11/27 03:12:04;;;;;;;5.93;2.90;;;;;;;18.88;57.69;101389.28;5055601;28;20916;-62
2022/11/27 03:14:30;;;;;;;4.80;3.20;;;;;;;18.84;57.77;101394.91;5073192;28;20430;-62
2022/11/27 03:17:16;;;;;;;4.27;3.00;;;;;;;18.87;57.84;101397.03;5038826;28;20421;-62
2022/11/27 03:19:47;;;;;;;5.13;3.23;;;;;;;18.86;57.79;101375.34;5073071;28;20181;-62
2022/11/27 03:22:13;;;;;;;4.50;2.87;;;;;;;18.85;57.63;101379.41;5055819;28;20413;-62
2022/11/27 03:24:39;;;;;;;4.03;2.57;;;;;;;18.84;57.92;101369.16;5055145;28;20747;-62
2022/11/27 03:27:04;;;;;;;4.70;3.10;;;;;;;18.86;57.89;101372.47;5073119;28;20422;-62
2022/11/27 03:29:33;;;;;;;4.37;2.97;;;;;;;18.87;57.76;101368.41;5073124;28;20171;-62
2022/11/27 03:31:59;;;;;;;5.80;3.00;;;;;;;18.86;58.08;101365.94;5055307;28;20208;-62
2022/11/27 03:34:25;;;;;;;6.37;3.10;;;;;;;18.86;57.92;101369.63;5054984;28;20940;-62
2022/11/27 03:36:50;;;;;;;4.20;3.13;;;;;;;18.86;58.02;101378.19;5073159;28;20655;-62
2022/11/27 03:39:16;;;;;;;6.57;2.90;;;;;;;18.87;57.85;101379.06;5073021;28;20213;-63
2022/11/27 03:41:45;;;;;;;5.07;3.10;;;;;;;18.82;57.93;101370.69;5072617;28;20547;-62
2022/11/27 03:44:39;;;;;;;5.37;2.83;;;;;;;18.84;57.83;101380.59;5073535;28;20186;-62
2022/11/27 03:47:42;;;;;;;4.97;2.63;;;;;;;18.83;57.93;101378.94;5045601;28;20470;-63
2022/11/27 03:50:40;;;;;;;5.30;3.20;;;;;;;18.83;57.86;101378.94;5072867;28;20389;-62
2022/11/27 03:53:26;;;;;;;4.47;3.00;;;;;;;18.83;57.99;101373.22;5071782;28;20421;-62
2022/11/27 03:56:00;;;;;;;4.43;2.93;;;;;;;18.80;58.10;101367.34;5071828;28;21033;-62
2022/11/27 03:58:37;;;;;;;4.50;2.90;;;;;;;18.82;58.01;101377.25;5072151;28;20980;-62
2022/11/27 04:01:04;;;;;;;3.40;2.53;;;;;;;18.82;57.91;101365.78;5071993;28;20504;-62
2022/11/27 04:03:29;;;;;;;4.17;2.50;;;;;;;18.83;57.98;101367.50;5053513;28;20452;-62
2022/11/27 04:05:55;;;;;;;5.30;2.93;;;;;;;18.82;57.98;101377.25;5071979;28;20513;-63
2022/11/27 04:08:21;;;;;;;6.07;3.13;;;;;;;18.79;58.03;101363.66;5072671;28;20167;-63
2022/11/27 04:10:46;;;;;;;4.40;2.87;;;;;;;18.83;58.00;101358.06;5071971;28;20183;-62
2022/11/27 04:13:12;;;;;;;5.93;3.00;;;;;;;18.83;57.91;101360.91;5072419;28;20175;-62
2022/11/27 04:15:37;;;;;;;4.03;2.63;;;;;;;18.82;57.82;101371.53;5072202;28;20199;-62
2022/11/27 04:18:02;;;;;;;4.63;2.67;;;;;;;18.84;58.09;101371.16;5072267;28;20163;-62
2022/11/27 04:20:28;;;;;;;4.80;2.70;;;;;;;18.82;58.07;101371.53;5072605;28;20175;-62
2022/11/27 04:22:54;;;;;;;5.50;3.10;;;;;;;18.84;57.92;101369.16;5072452;28;20590;-62
2022/11/27 04:25:19;;;;;;;3.80;2.47;;;;;;;18.84;58.01;101369.16;5072368;28;20163;-62
2022/11/27 04:27:44;;;;;;;3.67;2.50;;;;;;;18.82;58.13;101371.53;5072504;28;20167;-62
2022/11/27 04:30:10;;;;;;;4.60;3.40;;;;;;;18.85;57.93;101370.81;5072244;28;20178;-62
2022/11/27 04:32:36;;;;;;;3.90;2.40;;;;;;;18.82;57.88;101365.78;5072083;28;20186;-62
2022/11/27 04:35:01;;;;;;;5.47;2.70;;;;;;;18.83;57.90;101361.78;5072386;28;20464;-62
2022/11/27 04:37:27;;;;;;;5.50;2.63;;;;;;;18.83;57.90;101363.78;5071994;28;20168;-62
2022/11/27 04:39:52;;;;;;;4.80;2.77;;;;;;;18.82;57.79;101357.22;5071804;28;20190;-62
2022/11/27 04:42:18;;;;;;;3.23;2.30;;;;;;;18.86;57.98;101357.34;5072071;28;20168;-62
2022/11/27 04:44:43;;;;;;;4.10;2.60;;;;;;;18.84;57.87;101351.97;5072109;28;20171;-62
2022/11/27 04:47:08;;;;;;;4.10;2.50;;;;;;;18.85;57.84;101347.94;5072007;28;20205;-63
2022/11/27 04:49:34;;;;;;;4.37;2.90;;;;;;;18.85;57.83;101347.94;5071954;28;20179;-62
2022/11/27 04:51:59;;;;;;;3.70;2.53;;;;;;;18.83;57.90;101344.59;5071442;28;20186;-62
2022/11/27 04:54:25;;;;;;;4.73;2.87;;;;;;;18.83;57.81;101338.03;5071661;28;20250;-62
2022/11/27 04:56:50;;;;;;;4.57;2.50;;;;;;;18.83;57.98;101335.16;5071543;28;20645;-62
2022/11/27 04:59:15;;;;;;;5.50;2.37;;;;;;;18.87;57.89;101339.00;5072332;28;20183;-62
2022/11/27 05:01:41;;;;;;;4.63;3.10;;;;;;;18.85;57.78;101342.22;5072143;28;20179;-62
2022/11/27 05:04:06;;;;;;;4.27;2.50;;;;;;;18.83;57.96;101338.88;5074989;28;20198;-62
2022/11/27 05:06:32;;;;;;;4.00;2.40;;;;;;;18.83;57.79;101333.16;5075195;28;20171;-62
2022/11/27 05:09:00;;;;;;;4.40;2.63;;;;;;;18.80;58.10;101342.44;5075556;28;20163;-62
2022/11/27 05:11:27;;;;;;;4.83;2.90;;;;;;;18.85;57.80;101335.63;5075262;28;20554;-62
2022/11/27 05:14:13;;;;;;;4.80;2.67;;;;;;;18.83;57.77;101321.72;5075708;28;20421;-62
2022/11/27 05:16:37;;;;;;;5.27;2.23;;;;;;;18.83;57.94;101315.16;5074989;28;20501;-62
2022/11/27 05:19:03;;;;;;;3.83;2.40;;;;;;;18.87;57.86;101314.06;5075343;28;20491;-62
2022/11/27 05:21:29;;;;;;;4.00;2.23;;;;;;;18.82;58.12;101308.56;5075287;28;20159;-62
2022/11/27 05:23:54;;;;;;;5.17;2.77;;;;;;;18.83;57.82;101312.28;5074759;28;20191;-62
2022/11/27 05:26:20;;;;;;;4.50;2.87;;;;;;;18.85;57.62;101324.19;5075116;28;20174;-62
2022/11/27 05:28:45;;;;;;;4.30;2.63;;;;;;;18.87;57.97;101316.91;5074971;28;20625;-62
2022/11/27 05:31:10;;;;;;;4.20;2.30;;;;;;;18.88;57.74;101332.91;5075371;28;20603;-62
2022/11/27 05:33:36;;;;;;;3.63;2.30;;;;;;;18.85;57.86;101342.22;5075357;28;20182;-62
2022/11/27 05:36:01;;;;;;;6.07;2.50;;;;;;;18.86;57.79;101348.78;5074816;28;20558;-62
2022/11/27 05:38:27;;;;;;;4.00;2.50;;;;;;;18.85;57.76;101347.94;5057257;28;20640;-62
2022/11/27 05:40:52;;;;;;;4.07;2.50;;;;;;;18.87;57.92;101341.84;5075055;28;20183;-63
2022/11/27 05:43:17;;;;;;;4.17;2.60;;;;;;;18.82;57.99;101336.38;5075145;28;20194;-62
2022/11/27 05:45:43;;;;;;;3.97;2.77;;;;;;;18.82;57.98;101342.91;5072973;28;20205;-62
2022/11/27 05:48:08;;;;;;;3.80;2.30;;;;;;;18.87;57.69;101331.22;5074903;28;20225;-62
2022/11/27 05:50:34;;;;;;;3.67;2.17;;;;;;;18.88;57.87;101330.06;5074891;28;20228;-62
2022/11/27 05:53:00;;;;;;;4.97;2.50;;;;;;;18.87;57.72;101321.81;5074801;28;20170;-62
2022/11/27 05:55:25;;;;;;;3.90;2.57;;;;;;;18.85;57.74;101316.44;5074471;28;20226;-62
2022/11/27 05:57:50;;;;;;;3.60;2.30;;;;;;;18.85;57.88;101313.59;5074657;28;20253;-63
2022/11/27 06:00:16;;;;;;;4.03;2.70;;;;;;;18.85;57.71;101313.59;5074395;28;20167;-62
2022/11/27 06:02:42;;;;;;;3.33;2.17;;;;;;;18.84;58.04;101311.09;5074638;28;20217;-62
2022/11/27 06:05:07;;;;;;;4.50;2.47;;;;;;;18.89;57.63;101302.25;5054565;28;20210;-62
2022/11/27 06:07:33;;;;;;;4.33;2.30;;;;;;;18.86;57.84;101298.09;5053275;28;20172;-62
2022/11/27 06:09:58;;;;;;;3.23;2.10;;;;;;;18.88;57.56;101280.56;5053212;28;20160;-62
2022/11/27 06:12:23;;;;;;;5.10;2.80;;;;;;;18.82;58.13;101279.16;5053271;28;20160;-62
2022/11/27 06:14:49;;;;;;;3.90;2.50;;;;;;;18.84;57.88;101280.47;5053241;28;20221;-62
2022/11/27 06:17:15;;;;;;;6.20;2.50;;;;;;;18.84;57.70;101271.88;5052851;28;20553;-62
2022/11/27 06:19:43;;;;;;;4.20;2.90;;;;;;;18.82;57.83;101267.72;5053455;28;20611;-62
2022/11/27 06:22:09;;;;;;;3.00;2.07;;;;;;;18.85;57.73;101267.81;5053739;28;20782;-62
2022/11/27 06:24:34;;;;;;;3.40;2.50;;;;;;;18.87;57.95;101271.13;5036423;28;20422;-62
2022/11/27 06:27:00;;;;;;;3.13;2.30;;;;;;;18.87;57.75;101273.19;5054114;28;20179;-62
2022/11/27 06:29:25;;;;;;;3.37;2.30;;;;;;;18.89;57.67;101263.03;5053960;28;20180;-62
2022/11/27 06:31:50;;;;;;;3.43;2.10;;;;;;;18.87;57.72;101265.41;5053748;28;20187;-62
2022/11/27 06:34:16;;;;;;;4.00;2.60;;;;;;;18.90;57.73;101287.59;5053800;28;20190;-62
2022/11/27 06:36:41;;;;;;;4.43;2.47;;;;;;;18.88;57.77;101292.00;5053582;28;20192;-63
2022/11/27 06:39:07;;;;;;;3.97;2.60;;;;;;;18.88;57.54;101283.44;5054147;28;20180;-63
2022/11/27 06:41:32;;;;;;;3.93;2.40;;;;;;;18.88;57.58;101287.13;5036211;28;20627;-62
2022/11/27 06:43:59;;;;;;;3.80;2.70;;;;;;;18.86;57.72;101292.38;5056031;28;20183;-63
2022/11/27 06:46:24;;;;;;;3.40;2.53;;;;;;;18.87;57.86;101293.22;5036115;28;20168;-62
2022/11/27 06:48:51;;;;;;;4.27;2.47;;;;;;;18.88;57.80;101290.00;5035604;28;20402;-62
2022/11/27 06:51:19;;;;;;;4.40;2.40;;;;;;;18.85;57.51;101281.28;5053795;28;20160;-62
2022/11/27 06:53:44;;;;;;;3.20;2.43;;;;;;;18.89;57.75;101270.78;5033518;28;20505;-62
2022/11/27 06:56:11;;;;;;;3.07;2.17;;;;;;;18.90;57.52;101261.84;5070879;28;20460;-62
2022/11/27 06:58:37;;;;;;;4.27;2.33;;;;;;;18.87;57.81;101262.56;5072969;28;20183;-62
2022/11/27 07:01:05;;;;;;;3.93;2.03;;;;;;;18.94;57.57;101271.38;5073586;28;20410;-62
2022/11/27 07:03:30;;;;;;;6.70;2.50;;;;;;;18.90;57.68;101258.97;5072731;28;20258;-62
2022/11/27 07:05:59;;;;;;;2.93;2.13;;;;;;;18.88;57.72;101261.38;5073073;28;20433;-63
2022/11/27 07:08:25;;;;;;;3.27;2.37;;;;;;;18.89;57.51;101254.47;5073256;28;20220;-62
2022/11/27 07:10:50;;;;;;;3.37;2.00;;;;;;;18.86;57.80;101252.31;5072936;28;20421;-62
2022/11/27 07:13:16;;;;;;;4.47;2.40;;;;;;;18.91;57.61;101259.81;5072595;28;20206;-62
2022/11/27 07:15:41;;;;;;;3.57;2.30;;;;;;;18.88;57.65;101249.94;5071003;28;20202;-62
2022/11/27 07:18:07;;;;;;;4.10;2.47;;;;;;;18.87;57.72;101256.00;5071972;28;20198;-62
2022/11/27 07:20:32;;;;;;;3.10;2.10;;;;;;;18.84;57.57;101249.00;5072859;28;20172;-63
2022/11/27 07:22:58;;;;;;;3.20;2.13;;;;;;;18.93;57.59;101243.97;5073266;28;20178;-63
2022/11/27 07:25:23;;;;;;;3.57;2.13;;;;;;;18.90;57.68;101241.81;5057266;28;20176;-62
2022/11/27 07:27:49;;;;;;;4.17;2.30;;;;;;;18.92;57.47;101241.47;5052520;28;20167;-62
2022/11/27 07:30:14;;;;;;;3.60;2.20;;;;;;;18.89;57.61;101245.03;5058285;28;20190;-62
2022/11/27 07:32:40;;;;;;;5.00;2.47;;;;;;;18.87;57.66;101248.25;5061088;28;20206;-62
2022/11/27 07:35:05;;;;;;;3.70;1.93;;;;;;;18.93;57.38;101260.28;5073075;28;20186;-62
2022/11/27 07:37:31;;;;;;;4.57;2.23;;;;;;;18.93;57.67;101275.44;5073649;28;20182;-62
2022/11/27 07:39:56;;;;;;;2.67;1.93;;;;;;;18.92;57.54;101275.78;5072967;28;20278;-62
2022/11/27 07:42:22;;;;;;;2.90;1.90;;;;;;;18.91;57.66;101280.69;5072281;28;20225;-62
2022/11/27 07:44:47;;;;;;;4.13;2.43;;;;;;;18.91;57.59;101260.66;5072604;28;20257;-63
2022/11/27 07:47:13;;;;;;;3.17;1.93;;;;;;;18.87;57.61;101253.97;5073468;28;20178;-62
2022/11/27 07:49:38;;;;;;;4.10;2.20;;;;;;;18.94;57.54;101248.50;5072121;28;20171;-63
2022/11/27 07:52:04;;;;;;;3.57;2.20;;;;;;;18.94;57.56;101236.19;5066312;28;20222;-63
2022/11/27 07:54:29;;;;;;;3.17;2.10;;;;;;;18.91;57.60;101240.63;5042418;28;20702;-63
2022/11/27 07:56:55;;;;;;;3.00;1.80;;;;;;;18.90;57.64;101230.38;5048370;28;20189;-63
2022/11/27 07:59:20;;;;;;;4.10;2.23;;;;;;;18.91;57.68;101219.78;5039517;28;20180;-63
2022/11/27 08:01:46;;;;;;;4.10;2.00;;;;;;;18.92;57.68;101221.44;5040812;28;20180;-63
2022/11/27 08:04:11;;;;;;;3.70;2.07;;;;;;;18.91;57.63;101232.03;5044593;28;20654;-64
2022/11/27 08:06:36;;;;;;;4.50;2.47;;;;;;;18.93;57.28;101235.38;5049470;28;20180;-63
2022/11/27 08:09:02;;;;;;;3.33;2.30;;;;;;;18.92;57.58;101238.59;5044143;28;20234;-63
2022/11/27 08:11:30;;;;;;;3.00;2.07;;;;;;;18.91;57.48;101231.22;5032138;28;20180;-63
2022/11/27 08:13:57;;;;;;;2.93;2.10;;;;;;;18.92;57.67;101222.25;5038231;28;20246;-63
2022/11/27 08:16:22;;;;;;;3.60;2.00;;;;;;;18.90;57.75;101218.94;5032816;28;20438;-63
2022/11/27 08:18:48;;;;;;;3.30;2.13;;;;;;;18.91;57.71;101214.03;5041726;28;20438;-63
2022/11/27 08:21:13;;;;;;;3.17;2.10;;;;;;;18.95;57.60;101204.38;5040627;28;20188;-63
2022/11/27 08:23:39;;;;;;;3.73;2.10;;;;;;;18.91;57.39;101200.56;5046765;28;20191;-63
2022/11/27 08:26:06;;;;;;;2.87;1.80;;;;;;;18.92;57.50;101196.50;5039578;28;20184;-63
2022/11/27 08:28:31;;;;;;;3.20;1.93;;;;;;;18.93;57.55;101201.03;5035444;28;20250;-63
2022/11/27 08:30:58;;;;;;;4.83;2.27;;;;;;;18.93;57.54;101212.50;5038075;28;20914;-63
2022/11/27 08:33:23;;;;;;;4.10;2.10;;;;;;;18.93;57.40;101203.91;5035455;28;20534;-63
2022/11/27 08:35:49;;;;;;;2.97;2.10;;;;;;;18.94;57.48;101201.84;5051881;28;20458;-63
2022/11/27 08:38:14;;;;;;;3.40;2.13;;;;;;;18.91;57.62;101203.41;5020838;28;20184;-63
2022/11/27 08:40:39;;;;;;;2.93;1.83;;;;;;;18.93;57.49;101214.50;5041710;28;20639;-63
2022/11/27 08:43:05;;;;;;;2.70;2.00;;;;;;;18.94;57.44;101217.00;5055534;28;20627;-63
2022/11/27 08:45:31;;;;;;;3.90;2.33;;;;;;;18.95;57.46;101221.53;5055757;28;20241;-63
2022/11/27 08:47:57;;;;;;;3.90;1.80;;;;;;;18.92;57.56;101225.09;5044637;28;20270;-63
2022/11/27 08:50:22;;;;;;;3.60;2.00;;;;;;;18.93;57.36;101212.50;5050293;28;20603;-63
2022/11/27 08:52:48;;;;;;;3.00;1.93;;;;;;;18.88;57.67;101209.88;5037393;28;20564;-62
2022/11/27 08:55:13;;;;;;;3.30;2.30;;;;;;;18.90;57.65;101206.63;5054557;28;20238;-63
2022/11/27 08:57:39;;;;;;;3.03;2.10;;;;;;;18.96;57.33;101196.63;5073862;28;20195;-63
2022/11/27 09:00:05;;;;;;;2.47;1.87;;;;;;;18.90;57.46;101190.31;5067382;28;20179;-63
2022/11/27 09:02:32;;;;;;;3.57;2.03;;;;;;;18.93;57.55;101201.03;5069454;28;20190;-63
2022/11/27 09:04:57;;;;;;;3.10;2.20;;;;;;;18.95;57.68;101194.94;5069202;28;20445;-63
2022/11/27 09:07:23;;;;;;;3.00;1.90;;;;;;;18.96;57.33;101199.50;5069289;28;20425;-63
2022/11/27 09:09:48;;;;;;;4.67;2.33;;;;;;;18.94;57.49;101208.44;5061237;28;20179;-64
2022/11/27 09:12:14;;;;;;;4.57;2.00;;;;;;;18.94;57.37;101205.56;5063206;28;20215;-65
2022/11/27 09:14:39;;;;;;;3.00;2.07;;;;;;;18.88;57.50;101189.84;5071487;28;20507;-65
2022/11/27 09:17:04;;;;;;;7.60;2.60;;;;;;;18.87;57.18;101196.75;5064783;28;20175;-62
2022/11/27 09:19:30;;;;;;;3.57;2.20;;;;;;;18.92;57.45;101205.06;5057592;28;20175;-62
2022/11/27 09:21:55;;;;;;;4.87;2.67;;;;;;;18.93;57.40;101195.31;5067821;28;20183;-62
2022/11/27 09:24:21;;;;;;;2.63;1.87;;;;;;;18.94;57.29;101194.13;5057567;28;20184;-62
2022/11/27 09:26:46;;;;;;;3.63;2.13;;;;;;;18.90;57.40;101184.59;5069119;28;20175;-62
2022/11/27 09:29:12;;;;;;;3.63;2.13;;;;;;;18.89;57.55;101177.22;5065657;28;20183;-62
2022/11/27 09:31:37;;;;;;;4.60;2.57;;;;;;;18.92;57.41;101176.47;5069704;28;20186;-62
2022/11/27 09:34:04;;;;;;;4.07;2.20;;;;;;;18.88;57.54;101169.81;5059529;28;20631;-62
2022/11/27 09:36:29;;;;;;;3.63;2.37;;;;;;;18.93;57.49;101169.56;5064054;28;20293;-62
2022/11/27 09:38:56;;;;;;;3.27;2.10;;;;;;;18.89;57.53;101173.50;5064386;28;20429;-62
2022/11/27 09:41:38;;;;;;;2.93;2.03;;;;;;;18.86;57.62;101177.91;5060879;28;20266;-62
2022/11/27 09:44:24;;;;;;;2.73;2.23;;;;;;;18.85;57.54;101176.25;5057846;28;20893;-62
2022/11/27 09:46:50;;;;;;;3.10;1.93;;;;;;;18.88;57.67;101180.44;5061446;28;20965;-62
2022/11/27 09:49:28;;;;;;;2.90;1.83;;;;;;;18.85;57.71;101175.41;5061810;28;20438;-62
2022/11/27 09:52:03;;;;;;;3.00;1.60;;;;;;;18.91;57.61;101191.16;5058881;28;20182;-62
2022/11/27 09:54:42;;;;;;;3.30;1.90;;;;;;;18.87;57.57;101173.84;5045791;28;20475;-62
2022/11/27 09:57:12;;;;;;;3.23;2.03;;;;;;;18.88;57.71;101169.81;5040963;28;20419;-62
2022/11/27 09:59:41;;;;;;;4.27;2.10;;;;;;;18.96;57.56;101174.56;5024379;28;20465;-62
2022/11/27 10:02:25;;;;;;;5.00;2.03;;;;;;;18.92;57.48;101181.38;5020158;28;21002;-62
2022/11/27 10:04:50;;;;;;;4.27;2.40;;;;;;;18.90;57.70;101175.16;5029651;28;20455;-62
2022/11/27 10:07:19;;;;;;;2.90;1.87;;;;;;;18.92;57.43;101165.00;5040717;28;20491;-62
2022/11/27 10:10:11;;;;;;;3.30;1.87;;;;;;;18.93;57.30;101160.13;5018052;28;20188;-62
2022/11/27 10:12:54;;;;;;;3.30;2.00;;;;;;;18.91;57.64;101151.09;5004487;28;20431;-62
2022/11/27 10:15:30;;;;;;;3.37;2.17;;;;;;;18.90;57.44;101141.66;5051361;28;20820;-62
2022/11/27 10:18:27;;;;;;;3.30;1.67;;;;;;;18.99;57.32;101141.50;5017886;28;20907;-62
2022/11/27 10:20:55;;;;;;;3.63;2.00;;;;;;;18.94;57.65;101125.44;5040808;28;20436;-62
2022/11/27 10:23:27;;;;;;;3.27;1.90;;;;;;;18.94;57.40;101110.28;5019303;28;20473;-62
2022/11/27 10:26:29;;;;;;;3.60;2.07;;;;;;;18.89;57.54;101114.25;5042385;28;20437;-62
2022/11/27 10:29:02;;;;;;;4.47;2.33;;;;;;;18.95;57.42;101112.78;5040278;28;20897;-62
2022/11/27 10:31:46;;;;;;;3.00;1.77;;;;;;;18.97;57.45;101104.66;5035959;28;20430;-63
2022/11/27 10:34:19;;;;;;;4.63;1.73;;;;;;;18.92;57.66;101113.50;5033754;28;20914;-63
2022/11/27 10:36:46;;;;;;;2.93;1.90;;;;;;;18.93;57.48;101103.75;5021049;28;20457;-63
2022/11/27 10:39:32;;;;;;;2.77;1.63;;;;;;;18.92;57.47;101102.06;5050425;28;20489;-63
2022/11/27 10:42:07;;;;;;;6.23;2.20;;;;;;;18.95;57.50;101097.66;5023290;28;20419;-63
2022/11/27 10:44:49;;;;;;;2.47;1.80;;;;;;;18.93;57.60;101086.59;5022126;28;20445;-63
2022/11/27 10:47:15;;;;;;;4.30;2.30;;;;;;;18.95;57.59;101072.75;5021323;28;20422;-63
2022/11/27 10:49:40;;;;;;;3.70;1.90;;;;;;;18.94;57.55;101058.78;5041379;28;20647;-63
2022/11/27 10:52:16;;;;;;;2.47;1.67;;;;;;;18.93;57.50;101052.25;5023806;28;20658;-63
2022/11/27 10:54:42;;;;;;;2.83;2.07;;;;;;;18.88;57.57;101051.69;5056000;28;20307;-63
2022/11/27 10:57:22;;;;;;;2.73;1.90;;;;;;;18.93;57.65;101060.84;5065568;28;20421;-63
2022/11/27 11:00:09;;;;;;;2.80;1.90;;;;;;;18.93;57.60;101048.53;5044290;28;20460;-63
2022/11/27 11:02:39;;;;;;;3.67;2.10;;;;;;;18.93;57.45;101049.38;5045081;28;20421;-63
2022/11/27 11:05:22;;;;;;;3.00;1.90;;;;;;;18.95;57.83;101046.97;5061883;28;20494;-63
2022/11/27 11:08:17;;;;;;;3.27;2.00;;;;;;;18.95;57.78;101037.56;5066019;28;20435;-63
2022/11/27 11:10:53;;;;;;;4.17;2.37;;;;;;;18.91;57.53;101030.94;5060664;28;20521;-63
2022/11/27 11:13:26;;;;;;;3.03;2.10;;;;;;;18.94;57.44;101038.75;5024584;28;20479;-63
2022/11/27 11:16:05;;;;;;;2.70;1.70;;;;;;;18.94;57.60;101048.19;5063957;28;20460;-63
2022/11/27 11:18:32;;;;;;;2.90;1.93;;;;;;;18.91;57.62;101043.19;5059802;28;20425;-63
2022/11/27 11:21:02;;;;;;;3.27;2.00;;;;;;;18.91;57.72;101048.91;5058461;28;20421;-63
2022/11/27 11:23:32;;;;;;;2.20;1.60;;;;;;;18.94;57.55;101039.59;5037309;28;20949;-63
2022/11/27 11:26:01;;;;;;;4.00;1.97;;;;;;;18.93;57.59;101037.09;5022330;28;20417;-63
2022/11/27 11:28:26;;;;;;;4.00;2.03;;;;;;;18.95;57.37;101038.41;5048585;28;20458;-63
2022/11/27 11:31:15;;;;;;;4.20;1.90;;;;;;;18.94;57.56;101027.31;5062302;28;20464;-63